sensor_id;sensor_type;location;lat;lon;timestamp;pressure;altitude;pressure_sealevel;temperature;humidity
38630;BME280;24384;51.988;4.644;2024-02-21T00:00:17;102080.81;;;8.72;100.00
38630;BME280;24384;51.988;4.644;2024-02-21T00:02:43;102073.78;;;8.68;100.00
38630;BME280;24384;51.988;4.644;2024-02-21T00:05:08;102075.56;;;8.69;100.00
38630;BME280;24384;51.988;4.644;2024-02-21T00:07:34;102080.81;;;8.70;100.00
38630;BME280;24384;51.988;4.644;2024-02-21T00:09:59;102068.53;;;8.68;100.00
38630;BME280;24384;51.988;4.644;2024-02-21T00:12:26;102064.19;;;8.68;100.00
38630;BME280;24384;51.988;4.644;2024-02-21T00:14:51;102052.75;;;8.69;100.00
38630;BME280;24384;51.988;4.644;2024-02-21T00:17:19;102057.16;;;8.67;100.00
38630;BME280;24384;51.988;4.644;2024-02-21T00:19:44;102067.69;;;8.66;100.00
38630;BME280;24384;51.988;4.644;2024-02-21T00:22:09;102063.28;;;8.66;100.00
38630;BME280;24384;51.988;4.644;2024-02-21T00:24:35;102044.00;;;8.67;100.00
38630;BME280;24384;51.988;4.644;2024-02-21T00:27:00;102046.63;;;8.70;100.00
38630;BME280;24384;51.988;4.644;2024-02-21T00:29:25;102057.13;;;8.70;100.00
38630;BME280;24384;51.988;4.644;2024-02-21T00:31:51;102056.25;;;8.71;100.00
38630;BME280;24384;51.988;4.644;2024-02-21T00:34:16;102064.16;;;8.73;100.00
38630;BME280;24384;51.988;4.644;2024-02-21T00:36:41;102069.41;;;8.73;100.00
38630;BME280;24384;51.988;4.644;2024-02-21T00:39:06;102059.75;;;8.75;100.00
38630;BME280;24384;51.988;4.644;2024-02-21T00:41:32;102062.38;;;8.75;100.00
38630;BME280;24384;51.988;4.644;2024-02-21T00:43:58;102069.38;;;8.76;100.00
38630;BME280;24384;51.988;4.644;2024-02-21T00:46:23;102056.25;;;8.74;100.00
38630;BME280;24384;51.988;4.644;2024-02-21T00:48:48;102071.16;;;8.71;100.00
38630;BME280;24384;51.988;4.644;2024-02-21T00:51:16;102057.09;;;8.75;100.00
38630;BME280;24384;51.988;4.644;2024-02-21T00:53:42;102060.63;;;8.71;100.00
38630;BME280;24384;51.988;4.644;2024-02-21T00:56:07;102049.22;;;8.73;100.00
38630;BME280;24384;51.988;4.644;2024-02-21T00:58:33;102065.88;;;8.75;100.00
38630;BME280;24384;51.988;4.644;2024-02-21T01:00:58;102071.16;;;8.71;100.00
38630;BME280;24384;51.988;4.644;2024-02-21T01:03:23;102037.84;;;8.73;100.00
38630;BME280;24384;51.988;4.644;2024-02-21T01:05:51;102036.06;;;8.75;100.00
38630;BME280;24384;51.988;4.644;2024-02-21T01:08:16;102036.94;;;8.75;100.00
38630;BME280;24384;51.988;4.644;2024-02-21T01:10:44;102029.03;;;8.74;100.00
38630;BME280;24384;51.988;4.644;2024-02-21T01:13:09;102033.44;;;8.73;100.00
38630;BME280;24384;51.988;4.644;2024-02-21T01:15:35;102033.44;;;8.76;100.00
38630;BME280;24384;51.988;4.644;2024-02-21T01:18:00;102028.16;;;8.78;100.00
38630;BME280;24384;51.988;4.644;2024-02-21T01:20:26;102031.66;;;8.75;100.00
38630;BME280;24384;51.988;4.644;2024-02-21T01:22:51;102022.06;;;8.73;100.00
38630;BME280;24384;51.988;4.644;2024-02-21T01:25:16;102028.19;;;8.72;100.00
38630;BME280;24384;51.988;4.644;2024-02-21T01:27:42;102019.44;;;8.73;100.00
38630;BME280;24384;51.988;4.644;2024-02-21T01:30:07;102023.78;;;8.74;100.00
38630;BME280;24384;51.988;4.644;2024-02-21T01:32:33;102015.03;;;8.75;100.00
38630;BME280;24384;51.988;4.644;2024-02-21T01:34:59;102013.22;;;8.78;100.00
38630;BME280;24384;51.988;4.644;2024-02-21T01:37:24;102009.72;;;8.80;100.00
38630;BME280;24384;51.988;4.644;2024-02-21T01:39:50;102003.63;;;8.77;100.00
38630;BME280;24384;51.988;4.644;2024-02-21T01:42:16;102003.63;;;8.77;100.00
38630;BME280;24384;51.988;4.644;2024-02-21T01:44:43;101995.75;;;8.73;100.00
38630;BME280;24384;51.988;4.644;2024-02-21T01:47:10;102004.50;;;8.75;100.00
38630;BME280;24384;51.988;4.644;2024-02-21T01:49:36;102009.78;;;8.72;100.00
38630;BME280;24384;51.988;4.644;2024-02-21T01:52:02;101999.25;;;8.75;100.00
38630;BME280;24384;51.988;4.644;2024-02-21T01:54:31;102012.47;;;8.64;100.00
38630;BME280;24384;51.988;4.644;2024-02-21T01:56:56;102003.72;;;8.64;100.00
38630;BME280;24384;51.988;4.644;2024-02-21T01:59:22;101999.31;;;8.64;100.00
38630;BME280;24384;51.988;4.644;2024-02-21T02:01:48;102001.09;;;8.64;100.00
38630;BME280;24384;51.988;4.644;2024-02-21T02:04:13;101987.91;;;8.65;100.00
38630;BME280;24384;51.988;4.644;2024-02-21T02:06:39;101981.72;;;8.71;100.00
38630;BME280;24384;51.988;4.644;2024-02-21T02:09:06;101982.59;;;8.73;100.00
38630;BME280;24384;51.988;4.644;2024-02-21T02:11:31;101976.44;;;8.74;100.00
38630;BME280;24384;51.988;4.644;2024-02-21T02:13:57;101966.84;;;8.71;100.00
38630;BME280;24384;51.988;4.644;2024-02-21T02:16:22;101979.97;;;8.73;100.00
38630;BME280;24384;51.988;4.644;2024-02-21T02:18:47;101983.47;;;8.75;100.00
38630;BME280;24384;51.988;4.644;2024-02-21T02:21:37;101974.72;;;8.73;100.00
38630;BME280;24384;51.988;4.644;2024-02-21T02:24:06;101974.69;;;8.76;100.00
38630;BME280;24384;51.988;4.644;2024-02-21T02:26:31;101972.06;;;8.76;100.00
38630;BME280;24384;51.988;4.644;2024-02-21T02:29:01;101972.97;;;8.72;100.00
38630;BME280;24384;51.988;4.644;2024-02-21T02:31:26;101956.34;;;8.67;100.00
38630;BME280;24384;51.988;4.644;2024-02-21T02:33:52;101957.19;;;8.72;100.00
38630;BME280;24384;51.988;4.644;2024-02-21T02:36:18;101962.44;;;8.70;100.00
38630;BME280;24384;51.988;4.644;2024-02-21T02:38:43;101951.94;;;8.70;100.00
38630;BME280;24384;51.988;4.644;2024-02-21T02:41:08;101959.84;;;8.67;100.00
38630;BME280;24384;51.988;4.644;2024-02-21T02:43:34;101960.69;;;8.71;100.00
38630;BME280;24384;51.988;4.644;2024-02-21T02:45:59;101957.19;;;8.70;100.00
38630;BME280;24384;51.988;4.644;2024-02-21T02:48:24;101957.19;;;8.72;100.00
38630;BME280;24384;51.988;4.644;2024-02-21T02:50:50;101954.59;;;8.67;100.00
38630;BME280;24384;51.988;4.644;2024-02-21T02:53:15;101944.00;;;8.73;100.00
38630;BME280;24384;51.988;4.644;2024-02-21T02:55:40;101933.50;;;8.72;100.00
38630;BME280;24384;51.988;4.644;2024-02-21T02:58:06;101934.41;;;8.68;100.00
38630;BME280;24384;51.988;4.644;2024-02-21T03:00:31;101923.03;;;8.67;100.00
38630;BME280;24384;51.988;4.644;2024-02-21T03:03:01;101920.41;;;8.66;100.00
38630;BME280;24384;51.988;4.644;2024-02-21T03:05:27;101916.03;;;8.63;100.00
38630;BME280;24384;51.988;4.644;2024-02-21T03:07:53;101907.28;;;8.64;100.00
38630;BME280;24384;51.988;4.644;2024-02-21T03:10:18;101912.53;;;8.64;100.00
38630;BME280;24384;51.988;4.644;2024-02-21T03:12:43;101911.69;;;8.60;100.00
38630;BME280;24384;51.988;4.644;2024-02-21T03:15:09;101916.03;;;8.63;100.00
38630;BME280;24384;51.988;4.644;2024-02-21T03:17:34;101906.38;;;8.67;100.00
38630;BME280;24384;51.988;4.644;2024-02-21T03:20:04;101894.13;;;8.63;100.00
38630;BME280;24384;51.988;4.644;2024-02-21T03:22:30;101885.34;;;8.65;100.00
38630;BME280;24384;51.988;4.644;2024-02-21T03:24:56;101886.28;;;8.59;100.00
38630;BME280;24384;51.988;4.644;2024-02-21T03:27:21;101882.78;;;8.59;100.00
38630;BME280;24384;51.988;4.644;2024-02-21T03:29:46;101874.03;;;8.54;100.00
38630;BME280;24384;51.988;4.644;2024-02-21T03:32:12;101890.69;;;8.54;100.00
38630;BME280;24384;51.988;4.644;2024-02-21T03:34:37;101888.06;;;8.54;100.00
38630;BME280;24384;51.988;4.644;2024-02-21T03:37:02;101889.78;;;8.55;100.00
38630;BME280;24384;51.988;4.644;2024-02-21T03:39:33;101884.59;;;8.48;100.00
38630;BME280;24384;51.988;4.644;2024-02-21T03:42:02;101873.19;;;8.50;100.00
38630;BME280;24384;51.988;4.644;2024-02-21T03:44:33;101880.25;;;8.47;100.00
38630;BME280;24384;51.988;4.644;2024-02-21T03:47:01;101871.44;;;8.49;100.00
38630;BME280;24384;51.988;4.644;2024-02-21T03:49:27;101878.47;;;8.47;100.00
38630;BME280;24384;51.988;4.644;2024-02-21T03:51:52;101885.53;;;8.37;100.00
38630;BME280;24384;51.988;4.644;2024-02-21T03:54:19;101875.84;;;8.42;100.00
38630;BME280;24384;51.988;4.644;2024-02-21T03:56:44;101875.88;;;8.38;100.00
38630;BME280;24384;51.988;4.644;2024-02-21T03:59:10;101867.13;;;8.40;100.00
38630;BME280;24384;51.988;4.644;2024-02-21T04:01:35;101853.97;;;8.42;100.00
38630;BME280;24384;51.988;4.644;2024-02-21T04:04:01;101844.38;;;8.35;100.00
38630;BME280;24384;51.988;4.644;2024-02-21T04:06:26;101850.47;;;8.37;100.00
38630;BME280;24384;51.988;4.644;2024-02-21T04:08:51;101847.84;;;8.35;100.00
38630;BME280;24384;51.988;4.644;2024-02-21T04:11:17;101857.53;;;8.33;100.00
38630;BME280;24384;51.988;4.644;2024-02-21T04:13:44;101862.78;;;8.32;100.00
38630;BME280;24384;51.988;4.644;2024-02-21T04:16:09;101864.53;;;8.33;100.00
38630;BME280;24384;51.988;4.644;2024-02-21T04:18:34;101861.03;;;8.31;100.00
38630;BME280;24384;51.988;4.644;2024-02-21T04:21:00;101857.56;;;8.27;100.00
38630;BME280;24384;51.988;4.644;2024-02-21T04:23:25;101863.69;;;8.28;100.00
38630;BME280;24384;51.988;4.644;2024-02-21T04:25:52;101861.00;;;8.34;100.00
38630;BME280;24384;51.988;4.644;2024-02-21T04:28:17;101861.94;;;8.30;100.00
38630;BME280;24384;51.988;4.644;2024-02-21T04:30:45;101848.72;;;8.37;100.00
38630;BME280;24384;51.988;4.644;2024-02-21T04:33:10;101842.59;;;8.35;100.00
38630;BME280;24384;51.988;4.644;2024-02-21T04:35:36;101841.69;;;8.39;100.00
38630;BME280;24384;51.988;4.644;2024-02-21T04:38:02;101841.72;;;8.36;100.00
38630;BME280;24384;51.988;4.644;2024-02-21T04:40:27;101833.88;;;8.30;100.00
38630;BME280;24384;51.988;4.644;2024-02-21T04:42:53;101834.72;;;8.32;100.00
38630;BME280;24384;51.988;4.644;2024-02-21T04:45:19;101829.50;;;8.28;100.00
38630;BME280;24384;51.988;4.644;2024-02-21T04:47:44;101820.75;;;8.29;100.00
38630;BME280;24384;51.988;4.644;2024-02-21T04:50:09;101822.50;;;8.31;100.00
38630;BME280;24384;51.988;4.644;2024-02-21T04:52:35;101819.00;;;8.29;100.00
38630;BME280;24384;51.988;4.644;2024-02-21T04:55:00;101821.63;;;8.29;100.00
38630;BME280;24384;51.988;4.644;2024-02-21T04:57:25;101821.63;;;8.26;100.00
38630;BME280;24384;51.988;4.644;2024-02-21T04:59:50;101812.03;;;8.27;100.00
38630;BME280;24384;51.988;4.644;2024-02-21T05:02:16;101803.25;;;8.26;100.00
38630;BME280;24384;51.988;4.644;2024-02-21T05:04:44;101804.13;;;8.30;100.00
38630;BME280;24384;51.988;4.644;2024-02-21T05:07:10;101794.47;;;8.29;100.00
38630;BME280;24384;51.988;4.644;2024-02-21T05:09:37;101794.50;;;8.24;100.00
38630;BME280;24384;51.988;4.644;2024-02-21T05:12:02;101783.16;;;8.20;100.00
38630;BME280;24384;51.988;4.644;2024-02-21T05:14:30;101781.41;;;8.21;100.00
38630;BME280;24384;51.988;4.644;2024-02-21T05:16:55;101774.38;;;8.20;100.00
38630;BME280;24384;51.988;4.644;2024-02-21T05:19:21;101782.25;;;8.23;100.00
38630;BME280;24384;51.988;4.644;2024-02-21T05:21:47;101777.00;;;8.21;100.00
38630;BME280;24384;51.988;4.644;2024-02-21T05:24:13;101775.25;;;8.25;100.00
38630;BME280;24384;51.988;4.644;2024-02-21T05:26:39;101769.91;;;8.33;100.00
38630;BME280;24384;51.988;4.644;2024-02-21T05:29:04;101756.00;;;8.20;100.00
38630;BME280;24384;51.988;4.644;2024-02-21T05:32:02;101755.09;;;8.22;100.00
38630;BME280;24384;51.988;4.644;2024-02-21T05:34:28;101758.66;;;8.14;100.00
38630;BME280;24384;51.988;4.644;2024-02-21T05:36:53;101763.94;;;8.14;100.00
38630;BME280;24384;51.988;4.644;2024-02-21T05:39:19;101742.88;;;8.15;100.00
38630;BME280;24384;51.988;4.644;2024-02-21T05:41:45;101739.44;;;8.12;100.00
38630;BME280;24384;51.988;4.644;2024-02-21T05:44:10;101739.41;;;8.15;100.00
38630;BME280;24384;51.988;4.644;2024-02-21T05:46:36;101729.78;;;8.12;100.00
38630;BME280;24384;51.988;4.644;2024-02-21T05:49:01;101721.91;;;8.11;100.00
38630;BME280;24384;51.988;4.644;2024-02-21T05:51:27;101733.31;;;8.10;100.00
38630;BME280;24384;51.988;4.644;2024-02-21T05:53:52;101733.34;;;8.06;100.00
38630;BME280;24384;51.988;4.644;2024-02-21T05:56:17;101719.34;;;8.03;100.00
38630;BME280;24384;51.988;4.644;2024-02-21T05:58:43;101721.09;;;8.04;100.00
38630;BME280;24384;51.988;4.644;2024-02-21T06:01:09;101722.88;;;8.03;100.00
38630;BME280;24384;51.988;4.644;2024-02-21T06:03:35;101708.81;;;8.07;100.00
38630;BME280;24384;51.988;4.644;2024-02-21T06:06:02;101715.84;;;8.04;100.00
38630;BME280;24384;51.988;4.644;2024-02-21T06:08:27;101709.69;;;8.08;100.00
38630;BME280;24384;51.988;4.644;2024-02-21T06:10:52;101704.44;;;8.08;100.00
38630;BME280;24384;51.988;4.644;2024-02-21T06:13:20;101704.44;;;8.06;100.00
38630;BME280;24384;51.988;4.644;2024-02-21T06:15:48;101705.31;;;8.07;100.00
38630;BME280;24384;51.988;4.644;2024-02-21T06:18:15;101705.34;;;8.04;100.00
38630;BME280;24384;51.988;4.644;2024-02-21T06:20:41;101715.00;;;8.02;100.00
38630;BME280;24384;51.988;4.644;2024-02-21T06:23:08;101717.63;;;8.02;100.00
38630;BME280;24384;51.988;4.644;2024-02-21T06:25:33;101723.72;;;8.04;100.00
38630;BME280;24384;51.988;4.644;2024-02-21T06:27:59;101721.13;;;8.01;100.00
38630;BME280;24384;51.988;4.644;2024-02-21T06:30:24;101729.03;;;7.99;100.00
38630;BME280;24384;51.988;4.644;2024-02-21T06:32:49;101739.53;;;7.99;100.00
38630;BME280;24384;51.988;4.644;2024-02-21T06:35:17;101731.66;;;7.98;100.00
38630;BME280;24384;51.988;4.644;2024-02-21T06:37:42;101722.03;;;7.95;100.00
38630;BME280;24384;51.988;4.644;2024-02-21T06:40:10;101712.41;;;7.99;100.00
38630;BME280;24384;51.988;4.644;2024-02-21T06:42:35;101707.16;;;7.96;100.00
38630;BME280;24384;51.988;4.644;2024-02-21T06:45:03;101707.16;;;7.96;100.00
38630;BME280;24384;51.988;4.644;2024-02-21T06:47:30;101706.31;;;7.91;100.00
38630;BME280;24384;51.988;4.644;2024-02-21T06:49:55;101692.31;;;7.90;100.00
38630;BME280;24384;51.988;4.644;2024-02-21T06:52:23;101695.81;;;7.91;100.00
38630;BME280;24384;51.988;4.644;2024-02-21T06:54:52;101695.84;;;7.86;100.00
38630;BME280;24384;51.988;4.644;2024-02-21T06:57:17;101682.69;;;7.89;100.00
38630;BME280;24384;51.988;4.644;2024-02-21T06:59:43;101684.44;;;7.92;100.00
38630;BME280;24384;51.988;4.644;2024-02-21T07:02:08;101687.91;;;7.94;100.00
38630;BME280;24384;51.988;4.644;2024-02-21T07:04:34;101692.28;;;7.93;100.00
38630;BME280;24384;51.988;4.644;2024-02-21T07:06:59;101675.69;;;7.89;100.00
38630;BME280;24384;51.988;4.644;2024-02-21T07:09:25;101681.00;;;7.85;100.00
38630;BME280;24384;51.988;4.644;2024-02-21T07:11:50;101680.97;;;7.86;100.00
38630;BME280;24384;51.988;4.644;2024-02-21T07:14:15;101678.31;;;7.91;100.00
38630;BME280;24384;51.988;4.644;2024-02-21T07:16:41;101682.69;;;7.87;100.00
38630;BME280;24384;51.988;4.644;2024-02-21T07:19:06;101670.47;;;7.88;100.00
38630;BME280;24384;51.988;4.644;2024-02-21T07:21:32;101669.59;;;7.86;100.00
38630;BME280;24384;51.988;4.644;2024-02-21T07:23:58;101659.00;;;7.94;100.00
38630;BME280;24384;51.988;4.644;2024-02-21T07:26:23;101640.59;;;7.98;100.00
38630;BME280;24384;51.988;4.644;2024-02-21T07:28:49;101649.38;;;7.96;100.00
38630;BME280;24384;51.988;4.644;2024-02-21T07:31:14;101643.22;;;7.98;100.00
38630;BME280;24384;51.988;4.644;2024-02-21T07:33:39;101637.97;;;7.95;100.00
38630;BME280;24384;51.988;4.644;2024-02-21T07:36:10;101631.00;;;7.94;100.00
38630;BME280;24384;51.988;4.644;2024-02-21T07:38:35;101630.13;;;7.94;100.00
38630;BME280;24384;51.988;4.644;2024-02-21T07:41:01;101633.63;;;7.96;100.00
38630;BME280;24384;51.988;4.644;2024-02-21T07:43:28;101640.69;;;7.87;100.00
38630;BME280;24384;51.988;4.644;2024-02-21T07:45:53;101635.41;;;7.91;100.00
38630;BME280;24384;51.988;4.644;2024-02-21T07:48:18;101626.66;;;7.88;100.00
38630;BME280;24384;51.988;4.644;2024-02-21T07:50:44;101624.06;;;7.87;100.00
38630;BME280;24384;51.988;4.644;2024-02-21T07:53:09;101612.66;;;7.89;100.00
38630;BME280;24384;51.988;4.644;2024-02-21T07:55:35;101611.84;;;7.81;100.00
38630;BME280;24384;51.988;4.644;2024-02-21T07:58:00;101610.94;;;7.85;100.00
38630;BME280;24384;51.988;4.644;2024-02-21T08:00:25;101597.84;;;7.82;100.00
38630;BME280;24384;51.988;4.644;2024-02-21T08:02:51;101592.56;;;7.84;100.00
38630;BME280;24384;51.988;4.644;2024-02-21T08:05:17;101601.31;;;7.84;100.00
38630;BME280;24384;51.988;4.644;2024-02-21T08:07:42;101604.81;;;7.86;100.00
38630;BME280;24384;51.988;4.644;2024-02-21T08:10:08;101610.06;;;7.86;100.00
38630;BME280;24384;51.988;4.644;2024-02-21T08:12:33;101614.44;;;7.84;100.00
38630;BME280;24384;51.988;4.644;2024-02-21T08:14:59;101596.06;;;7.84;100.00
38630;BME280;24384;51.988;4.644;2024-02-21T08:17:24;101585.50;;;7.91;100.00
38630;BME280;24384;51.988;4.644;2024-02-21T08:19:49;101591.66;;;7.89;100.00
38630;BME280;24384;51.988;4.644;2024-02-21T08:22:15;101582.00;;;7.90;100.00
38630;BME280;24384;51.988;4.644;2024-02-21T08:24:41;101576.75;;;7.90;100.00
38630;BME280;24384;51.988;4.644;2024-02-21T08:27:06;101580.25;;;7.89;100.00
38630;BME280;24384;51.988;4.644;2024-02-21T08:29:32;101576.75;;;7.90;100.00
38630;BME280;24384;51.988;4.644;2024-02-21T08:31:57;101574.16;;;7.87;100.00
38630;BME280;24384;51.988;4.644;2024-02-21T08:34:23;101589.00;;;7.91;100.00
38630;BME280;24384;51.988;4.644;2024-02-21T08:36:48;101556.56;;;7.95;100.00
38630;BME280;24384;51.988;4.644;2024-02-21T08:39:13;101553.09;;;7.92;100.00
38630;BME280;24384;51.988;4.644;2024-02-21T08:41:42;101554.81;;;7.96;100.00
38630;BME280;24384;51.988;4.644;2024-02-21T08:44:07;101555.69;;;7.95;100.00
38630;BME280;24384;51.988;4.644;2024-02-21T08:46:32;101544.34;;;7.91;100.00
38630;BME280;24384;51.988;4.644;2024-02-21T08:48:58;101554.81;;;7.96;100.00
38630;BME280;24384;51.988;4.644;2024-02-21T08:51:23;101533.81;;;7.96;100.00
38630;BME280;24384;51.988;4.644;2024-02-21T08:53:49;101537.28;;;7.98;100.00
38630;BME280;24384;51.988;4.644;2024-02-21T08:56:15;101541.66;;;7.99;100.00
38630;BME280;24384;51.988;4.644;2024-02-21T08:58:40;101525.88;;;8.00;100.00
38630;BME280;24384;51.988;4.644;2024-02-21T09:01:06;101522.31;;;8.04;100.00
38630;BME280;24384;51.988;4.644;2024-02-21T09:03:36;101513.50;;;8.09;100.00
38630;BME280;24384;51.988;4.644;2024-02-21T09:06:02;101523.13;;;8.11;100.00
38630;BME280;24384;51.988;4.644;2024-02-21T09:08:27;101516.13;;;8.10;100.00
38630;BME280;24384;51.988;4.644;2024-02-21T09:10:53;101510.84;;;8.12;100.00
38630;BME280;24384;51.988;4.644;2024-02-21T09:13:18;101500.34;;;8.12;100.00
38630;BME280;24384;51.988;4.644;2024-02-21T09:15:44;101490.63;;;8.17;100.00
38630;BME280;24384;51.988;4.644;2024-02-21T09:18:09;101485.31;;;8.20;100.00
38630;BME280;24384;51.988;4.644;2024-02-21T09:20:35;101474.00;;;8.16;100.00
38630;BME280;24384;51.988;4.644;2024-02-21T09:23:00;101473.00;;;8.27;100.00
38630;BME280;24384;51.988;4.644;2024-02-21T09:25:26;101465.94;;;8.30;100.00
38630;BME280;24384;51.988;4.644;2024-02-21T09:27:51;101471.97;;;8.37;100.00
38630;BME280;24384;51.988;4.644;2024-02-21T09:30:20;101456.28;;;8.31;100.00
38630;BME280;24384;51.988;4.644;2024-02-21T09:32:46;101457.16;;;8.31;100.00
38630;BME280;24384;51.988;4.644;2024-02-21T09:35:12;101444.06;;;8.30;100.00
38630;BME280;24384;51.988;4.644;2024-02-21T09:37:38;101433.34;;;8.45;100.00
38630;BME280;24384;51.988;4.644;2024-02-21T09:40:04;101428.09;;;8.42;100.00
38630;BME280;24384;51.988;4.644;2024-02-21T09:42:40;101417.47;;;8.51;100.00
38630;BME280;24384;51.988;4.644;2024-02-21T09:45:20;101411.34;;;8.51;100.00
38630;BME280;24384;51.988;4.644;2024-02-21T09:48:13;101406.91;;;8.56;100.00
38630;BME280;24384;51.988;4.644;2024-02-21T09:50:40;101401.59;;;8.59;100.00
38630;BME280;24384;51.988;4.644;2024-02-21T09:53:09;101390.09;;;8.65;100.00
38630;BME280;24384;51.988;4.644;2024-02-21T09:55:37;101393.53;;;8.70;100.00
38630;BME280;24384;51.988;4.644;2024-02-21T09:58:05;101399.72;;;8.66;100.00
38630;BME280;24384;51.988;4.644;2024-02-21T10:00:30;101394.38;;;8.72;100.00
38630;BME280;24384;51.988;4.644;2024-02-21T10:02:56;101391.75;;;8.70;100.00
38630;BME280;24384;51.988;4.644;2024-02-21T10:05:21;101379.34;;;8.78;100.00
38630;BME280;24384;51.988;4.644;2024-02-21T10:07:48;101380.19;;;8.82;100.00
38630;BME280;24384;51.988;4.644;2024-02-21T10:10:14;101371.50;;;8.75;100.00
38630;BME280;24384;51.988;4.644;2024-02-21T10:12:49;101354.88;;;8.75;100.00
38630;BME280;24384;51.988;4.644;2024-02-21T10:15:20;101349.59;;;8.75;100.00
38630;BME280;24384;51.988;4.644;2024-02-21T10:17:46;101345.16;;;8.78;100.00
38630;BME280;24384;51.988;4.644;2024-02-21T10:20:12;101320.72;;;8.72;100.00
38630;BME280;24384;51.988;4.644;2024-02-21T10:22:39;101316.38;;;8.69;100.00
38630;BME280;24384;51.988;4.644;2024-02-21T10:25:12;101295.28;;;8.72;100.00
38630;BME280;24384;51.988;4.644;2024-02-21T10:27:39;101294.59;;;8.63;100.00
38630;BME280;24384;51.988;4.644;2024-02-21T10:30:12;101300.47;;;8.77;100.00
38630;BME280;24384;51.988;4.644;2024-02-21T10:32:49;101316.38;;;8.69;100.00
38630;BME280;24384;51.988;4.644;2024-02-21T10:35:25;101333.03;;;8.70;100.00
38630;BME280;24384;51.988;4.644;2024-02-21T10:37:50;101339.13;;;8.72;100.00
38630;BME280;24384;51.988;4.644;2024-02-21T10:40:20;101341.00;;;8.67;100.00
38630;BME280;24384;51.988;4.644;2024-02-21T10:42:46;101333.94;;;8.69;100.00
38630;BME280;24384;51.988;4.644;2024-02-21T10:45:13;101330.47;;;8.67;100.00
38630;BME280;24384;51.988;4.644;2024-02-21T10:47:39;101331.34;;;8.66;100.00
38630;BME280;24384;51.988;4.644;2024-02-21T10:50:06;101327.94;;;8.60;100.00
38630;BME280;24384;51.988;4.644;2024-02-21T10:53:06;101322.59;;;8.67;100.00
38630;BME280;24384;51.988;4.644;2024-02-21T10:55:41;101310.31;;;8.66;100.00
38630;BME280;24384;51.988;4.644;2024-02-21T10:58:11;101303.19;;;8.71;100.00
38630;BME280;24384;51.988;4.644;2024-02-21T11:00:38;101294.38;;;8.75;100.00
38630;BME280;24384;51.988;4.644;2024-02-21T11:03:04;101300.44;;;8.78;100.00
38630;BME280;24384;51.988;4.644;2024-02-21T11:05:30;101297.06;;;8.72;100.00
38630;BME280;24384;51.988;4.644;2024-02-21T11:07:58;101297.84;;;8.77;100.00
38630;BME280;24384;51.988;4.644;2024-02-21T11:10:24;101302.25;;;8.76;100.00
38630;BME280;24384;51.988;4.644;2024-02-21T11:13:09;101286.41;;;8.80;100.00
38630;BME280;24384;51.988;4.644;2024-02-21T11:15:34;101235.44;;;8.85;100.00
38630;BME280;24384;51.988;4.644;2024-02-21T11:18:02;101263.16;;;9.02;100.00
38630;BME280;24384;51.988;4.644;2024-02-21T11:20:34;101246.44;;;9.06;100.00
38630;BME280;24384;51.988;4.644;2024-02-21T11:23:00;101234.03;;;9.11;100.00
38630;BME280;24384;51.988;4.644;2024-02-21T11:25:29;101248.91;;;9.13;100.00
38630;BME280;24384;51.988;4.644;2024-02-21T11:28:00;101237.41;;;9.19;100.00
38630;BME280;24384;51.988;4.644;2024-02-21T11:30:32;101216.16;;;9.28;100.00
38630;BME280;24384;51.988;4.644;2024-02-21T11:33:02;101199.19;;;9.40;100.00
38630;BME280;24384;51.988;4.644;2024-02-21T11:35:34;101198.16;;;9.47;100.00
38630;BME280;24384;51.988;4.644;2024-02-21T11:38:10;101185.94;;;9.45;100.00
38630;BME280;24384;51.988;4.644;2024-02-21T11:40:40;101200.97;;;9.40;100.00
38630;BME280;24384;51.988;4.644;2024-02-21T11:43:06;101179.00;;;9.42;100.00
38630;BME280;24384;51.988;4.644;2024-02-21T11:45:31;101183.38;;;9.42;100.00
38630;BME280;24384;51.988;4.644;2024-02-21T11:47:59;101177.94;;;9.49;100.00
38630;BME280;24384;51.988;4.644;2024-02-21T11:50:26;101177.06;;;9.49;100.00
38630;BME280;24384;51.988;4.644;2024-02-21T11:52:54;101171.75;;;9.52;100.00
38630;BME280;24384;51.988;4.644;2024-02-21T11:55:20;101170.16;;;9.43;100.00
38630;BME280;24384;51.988;4.644;2024-02-21T11:57:47;101165.03;;;9.37;100.00
38630;BME280;24384;51.988;4.644;2024-02-21T12:00:17;101169.66;;;9.27;100.00
38630;BME280;24384;51.988;4.644;2024-02-21T12:02:45;101152.16;;;9.25;100.00
38630;BME280;24384;51.988;4.644;2024-02-21T12:05:11;101145.97;;;9.27;100.00
38630;BME280;24384;51.988;4.644;2024-02-21T12:07:37;101141.84;;;9.16;100.00
38630;BME280;24384;51.988;4.644;2024-02-21T12:10:08;101120.81;;;9.14;100.00
38630;BME280;24384;51.988;4.644;2024-02-21T12:12:35;101117.34;;;9.13;100.00
38630;BME280;24384;51.988;4.644;2024-02-21T12:15:06;101101.59;;;9.12;100.00
38630;BME280;24384;51.988;4.644;2024-02-21T12:17:35;101098.81;;;9.18;100.00
38630;BME280;24384;51.988;4.644;2024-02-21T12:20:04;101086.78;;;9.06;100.00
38630;BME280;24384;51.988;4.644;2024-02-21T12:22:31;101091.28;;;9.03;100.00
38630;BME280;24384;51.988;4.644;2024-02-21T12:24:59;101075.59;;;8.98;100.00
38630;BME280;24384;51.988;4.644;2024-02-21T12:27:24;101073.06;;;8.93;100.00
38630;BME280;24384;51.988;4.644;2024-02-21T12:29:51;101046.75;;;8.93;100.00
38630;BME280;24384;51.988;4.644;2024-02-21T12:32:16;101045.09;;;8.89;100.00
38630;BME280;24384;51.988;4.644;2024-02-21T12:34:42;101021.31;;;8.94;100.00
38630;BME280;24384;51.988;4.644;2024-02-21T12:37:07;101017.94;;;8.89;100.00
38630;BME280;24384;51.988;4.644;2024-02-21T12:39:32;101009.22;;;8.87;100.00
38630;BME280;24384;51.988;4.644;2024-02-21T12:41:58;101004.03;;;8.84;100.00
38630;BME280;24384;51.988;4.644;2024-02-21T12:44:23;101000.53;;;8.83;100.00
38630;BME280;24384;51.988;4.644;2024-02-21T12:46:49;101004.03;;;8.84;100.00